Hundvaag 1 weather for Mar 2007
Month no. 237
Obs.
Da.
Temp. Dew Point Precip. Wind
Speed
Wind gusts Cloud cover Press. Humidity Wind dir. Sunny OPT
01.03.2007 4,7   0,5 3,2   3 976,2 75,0 45,0 1 65,0 %
02.03.2007 3,8   0,2 1,6   1 993,8 85,0 270,0   60,0 %
03.03.2007 3,3   0,0 0,0   1 1000,6 75,0     60,0 %
04.03.2007 3,7   1,5 19,3   1 1012,4 82,0 157,5 1 47,5 %
05.03.2007 6,0   0,0 45,1   0 1002,9 74,0 180,0   35,0 %
06.03.2007 4,9   8,3 29,0   1 996,5 83,0 180,0   37,5 %
07.03.2007 6,1   12,0 24,1   1 998,5 75,0 157,5 1 37,5 %
08.03.2007 5,6   0,0 1,6   1 1010,0 81,0 247,5 1 62,5 %
09.03.2007 5,9   2,2 22,5   1 1007,7 88,0 202,5   47,5 %
10.03.2007 4,9   6,5 27,4   1 1017,8 86,0 180,0   37,5 %
11.03.2007 7,7   14,5 9,7   0 1018,5 93,0 180,0   47,5 %
12.03.2007 6,9   6,0 32,2   2 1015,8 89,0 247,5   40,0 %
13.03.2007 5,8   0,3 27,4   9 1019,9 0,0 247,5 1 65,0 %
14.03.2007 5,6   0,0 9,7   0 1025,3 88,0 0,0   55,0 %
15.03.2007 6,8   2,0 14,5   1 1020,2 90,0 202,5   55,0 %
16.03.2007 3,6   3,0 9,7   3 1015,5 87,0 202,5 1 57,5 %
17.03.2007 3,9   9,0 17,7   1 1000,9 71,0 315,0 1 42,5 %
18.03.2007 3,9   9,7 45,1   0 967,7 74,0 202,5 1 25,0 %
19.03.2007 2,9   4,5 16,1   0 975,2 72,0 315,0   45,0 %
20.03.2007 3,3   0,0 24,1   2 999,5 75,0 292,5 1 47,5 %
21.03.2007 2,7   0,0 8,0   10 1016,5 76,0 157,5 1 77,5 %
22.03.2007 3,6   0,0 1,6   7 1016,1 69,0 90,0 1 75,0 %
23.03.2007 3,7   0,0 6,4   9 1025,6 68,0 270,0 1 77,5 %
24.03.2007 4,1   0,1 8,0   0 1028,0 81,0 292,5   52,5 %
25.03.2007 4,5   0,1 1,6   10 1032,7 61,0 315,0 1 82,5 %
26.03.2007 4,9   0,0 8,0   10 1034,1 57,0 90,0 1 77,5 %
27.03.2007 6,8   0,0 14,5   10 1029,0 51,0 112,5 1 77,5 %
28.03.2007 6,6   0,0 14,5   0 1024,3 44,0 180,0   52,5 %
29.03.2007 7,3   0,0 8,0   10 1018,5 58,0 135,0 1 80,0 %
30.03.2007 5,9   0,0 9,7   10 1019,2 63,0 112,5 1 80,0 %
31.03.2007 3,2   0,0 3,2   1 1029,0 82,0 0,0   60,0 %
Avrg/Sum 4,9   80,4 15,0   3,4 1011,2 72,7 186,0 17 56,9 %